createdAt,value
2018-11-20T00:00:45.790Z,5.22
2018-11-20T00:03:38.908Z,5.13
2018-11-20T00:06:44.497Z,5.25
2018-11-20T00:09:30.096Z,5.23
2018-11-20T00:12:09.807Z,5.18
2018-11-20T00:14:56.127Z,5.25
2018-11-20T00:17:46.122Z,5.31
2018-11-20T00:20:35.565Z,5.30
2018-11-20T00:23:25.410Z,5.35
2018-11-20T00:26:04.846Z,5.30
2018-11-20T00:28:45.848Z,5.35
2018-11-20T00:31:25.891Z,5.29
2018-11-20T00:34:11.608Z,5.15
2018-11-20T00:37:01.390Z,5.10
2018-11-20T00:39:51.358Z,5.04
2018-11-20T00:42:29.124Z,5.01
2018-11-20T00:45:15.834Z,5.11
2018-11-20T00:48:01.601Z,5.15
2018-11-20T00:51:03.235Z,5.19
2018-11-20T00:53:50.399Z,5.19
2018-11-20T00:57:21.344Z,5.14
2018-11-20T01:00:14.674Z,5.13
2018-11-20T01:03:02.809Z,5.10
2018-11-20T01:05:54.203Z,5.07
2018-11-20T01:08:31.490Z,5.09
2018-11-20T01:11:28.092Z,5.02
2018-11-20T01:14:14.257Z,5.08
2018-11-20T01:17:03.321Z,5.23
2018-11-20T01:20:02.905Z,5.30
2018-11-20T01:23:02.818Z,5.22
2018-11-20T01:25:59.296Z,5.24
2018-11-20T01:28:45.040Z,5.13
2018-11-20T01:31:23.600Z,5.15
2018-11-20T01:34:13.765Z,5.09
2018-11-20T01:36:56.579Z,5.01
2018-11-20T01:39:42.556Z,4.99
2018-11-20T01:42:44.910Z,5.08
2018-11-20T01:45:30.919Z,5.00
2018-11-20T01:48:19.585Z,5.07
2018-11-20T01:51:19.054Z,4.97
2018-11-20T01:54:04.648Z,5.04
2018-11-20T01:57:00.653Z,4.99
2018-11-20T01:59:47.497Z,5.00
2018-11-20T02:02:43.955Z,5.06
2018-11-20T02:05:30.139Z,5.17
2018-11-20T02:08:33.293Z,5.10
2018-11-20T02:11:28.159Z,4.90
2018-11-20T02:14:26.722Z,4.85
2018-11-20T02:17:21.461Z,4.87
2018-11-20T02:20:14.471Z,4.88
2018-11-20T02:23:01.691Z,4.89
2018-11-20T02:26:07.511Z,4.97
2018-11-20T02:28:54.976Z,4.95
2018-11-20T02:31:43.229Z,4.95
2018-11-20T02:34:43.302Z,4.75
2018-11-20T02:37:31.448Z,4.95
2018-11-20T02:40:27.987Z,4.97
2018-11-20T02:43:19.679Z,4.88
2018-11-20T02:45:54.663Z,4.93
2018-11-20T02:48:50.821Z,4.98
2018-11-20T02:51:45.929Z,4.93
2018-11-20T02:54:31.771Z,4.82
2018-11-20T02:57:21.640Z,4.91
2018-11-20T03:00:07.304Z,4.97
2018-11-20T03:03:00.179Z,4.82
2018-11-20T03:05:56.144Z,4.87
2018-11-20T03:08:45.825Z,4.80
2018-11-20T03:11:42.272Z,4.59
2018-11-20T03:14:28.503Z,4.66
2018-11-20T03:17:12.968Z,4.80
2018-11-20T03:19:58.484Z,4.87
2018-11-20T03:22:44.235Z,4.83
2018-11-20T03:25:54.438Z,4.87
2018-11-20T03:28:38.090Z,4.88
2018-11-20T03:31:24.065Z,4.73
2018-11-20T03:34:21.524Z,4.60
2018-11-20T03:37:08.045Z,4.51
2018-11-20T03:39:53.589Z,4.59
2018-11-20T03:42:41.210Z,4.63
2018-11-20T03:45:17.875Z,4.54
2018-11-20T03:48:16.991Z,4.53
2018-11-20T03:51:00.314Z,4.47
2018-11-20T03:53:59.201Z,4.60
2018-11-20T03:56:48.949Z,4.64
2018-11-20T03:59:44.899Z,4.65
2018-11-20T04:02:40.879Z,4.76
2018-11-20T04:05:28.091Z,4.80
2018-11-20T04:08:19.726Z,4.82
2018-11-20T04:11:05.248Z,4.83
2018-11-20T04:13:55.134Z,4.93
2018-11-20T04:16:41.383Z,4.90
2018-11-20T04:19:28.534Z,4.87
2018-11-20T04:22:14.367Z,4.89
2018-11-20T04:24:59.971Z,4.79
2018-11-20T04:27:56.566Z,4.81
2018-11-20T04:31:07.103Z,4.78
2018-11-20T04:34:11.056Z,4.73
2018-11-20T04:37:10.196Z,4.75
2018-11-20T04:40:09.187Z,4.79
2018-11-20T04:42:56.400Z,4.87
2018-11-20T04:45:33.084Z,4.75
2018-11-20T04:48:20.224Z,4.75
2018-11-20T04:51:19.284Z,4.65
2018-11-20T04:54:04.993Z,4.68
2018-11-20T04:56:50.569Z,4.67
2018-11-20T04:59:36.049Z,4.73
2018-11-20T05:02:23.211Z,4.63
2018-11-20T05:05:16.363Z,4.71
2018-11-20T05:08:06.102Z,4.73
2018-11-20T05:10:41.842Z,4.79
2018-11-20T05:13:27.854Z,4.91
2018-11-20T05:16:15.054Z,4.86
2018-11-20T05:19:02.723Z,4.85
2018-11-20T05:22:01.925Z,4.79
2018-11-20T05:24:49.173Z,4.73
2018-11-20T05:27:38.836Z,4.69
2018-11-20T05:30:32.298Z,4.74
2018-11-20T05:33:19.739Z,4.85
2018-11-20T05:36:12.719Z,4.76
2018-11-20T05:39:03.028Z,4.77
2018-11-20T05:41:53.071Z,4.87
2018-11-20T05:44:38.795Z,4.92
2018-11-20T05:47:25.025Z,4.76
2018-11-20T05:50:14.770Z,4.69
2018-11-20T05:53:17.065Z,4.61
2018-11-20T05:56:06.392Z,4.57
2018-11-20T05:58:57.381Z,4.66
2018-11-20T06:01:50.355Z,4.70
2018-11-20T06:04:30.449Z,4.69
2018-11-20T06:07:29.768Z,4.63
2018-11-20T06:10:15.429Z,4.69
2018-11-20T06:13:18.210Z,4.73
2018-11-20T06:16:05.680Z,4.66
2018-11-20T06:19:04.743Z,4.79
2018-11-20T06:21:50.475Z,4.93
2018-11-20T06:24:36.271Z,4.97
2018-11-20T06:27:22.100Z,4.91
2018-11-20T06:30:09.293Z,4.81
2018-11-20T06:32:55.568Z,4.85
2018-11-20T06:35:34.079Z,4.77
2018-11-20T06:38:19.940Z,4.63
2018-11-20T06:41:06.023Z,4.65
2018-11-20T06:43:53.604Z,4.65
2018-11-20T06:46:52.863Z,4.67
2018-11-20T06:49:38.846Z,4.72
2018-11-20T06:52:38.376Z,4.75
2018-11-20T06:55:20.730Z,4.73
2018-11-20T06:58:23.007Z,4.86
2018-11-20T07:01:02.114Z,4.71
2018-11-20T07:03:52.039Z,4.73
2018-11-20T07:06:56.619Z,4.81
2018-11-20T07:09:42.769Z,4.77
2018-11-20T07:12:28.686Z,4.73
2018-11-20T07:15:24.732Z,4.75
2018-11-20T07:18:11.549Z,4.69
2018-11-20T07:21:17.172Z,4.77
2018-11-20T07:24:07.391Z,4.74
2018-11-20T07:27:01.846Z,4.71
2018-11-20T07:29:47.443Z,4.73
2018-11-20T07:32:50.023Z,4.76
2018-11-20T07:35:39.333Z,4.82
2018-11-20T07:38:41.970Z,4.77
2018-11-20T07:41:27.730Z,4.91
2018-11-20T07:44:03.600Z,4.83
2018-11-20T07:46:49.108Z,4.94
2018-11-20T07:49:35.805Z,4.99
2018-11-20T07:52:25.959Z,4.97
2018-11-20T07:55:28.290Z,4.90
2018-11-20T07:58:14.489Z,4.97
2018-11-20T08:01:10.315Z,5.01
2018-11-20T08:03:49.854Z,5.00
2018-11-20T08:06:35.899Z,5.10
2018-11-20T08:09:28.176Z,5.08
2018-11-20T08:12:03.082Z,5.04
2018-11-20T08:14:49.103Z,4.99
2018-11-20T08:17:35.192Z,4.94
2018-11-20T08:20:23.031Z,5.02
2018-11-20T08:23:08.839Z,5.00
2018-11-20T08:26:02.488Z,5.08
2018-11-20T08:28:49.555Z,5.07
2018-11-20T08:31:39.510Z,5.06
2018-11-20T08:34:26.821Z,5.13
2018-11-20T08:37:10.253Z,5.24
2018-11-20T08:40:06.439Z,5.24
2018-11-20T08:42:56.216Z,5.21
2018-11-20T08:45:49.611Z,5.29
2018-11-20T08:48:35.956Z,5.24
2018-11-20T08:51:37.995Z,5.28
2018-11-20T08:54:17.395Z,5.14
2018-11-20T08:57:00.753Z,5.18
2018-11-20T08:59:55.639Z,5.26
2018-11-20T09:02:54.873Z,5.29
2018-11-20T09:05:40.795Z,5.29
2018-11-20T09:08:27.296Z,5.34
2018-11-20T09:11:14.786Z,5.32
2018-11-20T09:14:01.984Z,5.56
2018-11-20T09:16:43.675Z,5.56
2018-11-20T09:19:31.009Z,5.50
2018-11-20T09:22:21.208Z,5.60
2018-11-20T09:25:06.879Z,5.59
2018-11-20T09:28:06.005Z,5.58
2018-11-20T09:30:58.548Z,5.65
2018-11-20T09:33:48.311Z,5.72
2018-11-20T09:36:35.552Z,5.73
2018-11-20T09:39:25.444Z,5.69
2018-11-20T09:42:21.924Z,5.63
2018-11-20T09:45:30.059Z,5.75
2018-11-20T09:48:35.530Z,5.78
2018-11-20T09:51:38.090Z,5.78
2018-11-20T09:54:25.926Z,5.81
2018-11-20T09:57:15.884Z,4.69
2018-11-20T10:00:01.500Z,5.88
2018-11-20T10:03:00.577Z,5.90
2018-11-20T10:05:47.904Z,5.90
2018-11-20T10:08:35.566Z,5.89
2018-11-20T10:11:21.517Z,5.89
2018-11-20T10:14:08.798Z,5.88
2018-11-20T10:16:54.757Z,5.99
2018-11-20T10:19:39.354Z,5.99
2018-11-20T10:22:32.910Z,5.97
2018-11-20T10:25:23.485Z,6.03
2018-11-20T10:28:16.303Z,6.05
2018-11-20T10:31:03.447Z,6.15
2018-11-20T10:33:49.592Z,6.11
2018-11-20T10:36:39.537Z,6.21
2018-11-20T10:39:31.829Z,6.21
2018-11-20T10:42:17.789Z,6.20
2018-11-20T10:45:05.031Z,6.23
2018-11-20T10:47:51.582Z,6.13
2018-11-20T10:50:37.621Z,6.13
2018-11-20T10:53:22.939Z,6.12
2018-11-20T10:56:16.332Z,6.12
2018-11-20T10:59:19.269Z,6.23
2018-11-20T11:02:05.285Z,6.25
2018-11-20T11:04:51.791Z,6.25
2018-11-20T11:07:48.362Z,6.25
2018-11-20T11:10:36.626Z,6.34
2018-11-20T11:13:23.130Z,6.36
2018-11-20T11:16:03.356Z,6.24
2018-11-20T11:19:08.978Z,6.46
2018-11-20T11:21:58.779Z,6.32
2018-11-20T11:24:53.353Z,6.27
2018-11-20T11:27:39.676Z,6.42
2018-11-20T11:30:28.196Z,6.50
2018-11-20T11:33:10.812Z,6.50
2018-11-20T11:35:56.902Z,6.52
2018-11-20T11:38:46.877Z,6.54
2018-11-20T11:41:33.864Z,6.66
2018-11-20T11:44:20.922Z,6.66
2018-11-20T11:47:07.053Z,6.69
2018-11-20T11:50:00.909Z,6.59
2018-11-20T11:52:39.399Z,6.75
2018-11-20T11:55:24.187Z,6.75
2018-11-20T11:58:11.126Z,6.79
2018-11-20T12:00:59.588Z,6.71
2018-11-20T12:03:37.920Z,6.65
2018-11-20T12:06:25.882Z,6.63
2018-11-20T12:09:11.960Z,6.63
2018-11-20T12:11:58.123Z,6.67
2018-11-20T12:16:28.430Z,6.84
2018-11-20T12:19:21.125Z,6.84
2018-11-20T12:22:17.170Z,7.02
2018-11-20T12:25:19.336Z,7.04
2018-11-20T12:28:16.784Z,7.04
2018-11-20T12:30:53.649Z,6.86
2018-11-20T12:33:38.386Z,6.78
2018-11-20T12:36:22.516Z,6.92
2018-11-20T12:39:08.119Z,7.02
2018-11-20T12:41:53.997Z,7.02
2018-11-20T12:44:41.307Z,6.96
2018-11-20T12:47:31.645Z,7.01
2018-11-20T12:50:30.900Z,7.01
2018-11-20T12:53:16.540Z,7.07
2018-11-20T12:55:58.779Z,7.01
2018-11-20T12:58:44.522Z,7.09
2018-11-20T13:01:29.986Z,7.09
2018-11-20T13:04:25.565Z,7.10
2018-11-20T13:07:22.944Z,7.18
2018-11-20T13:10:08.114Z,7.18
2018-11-20T13:13:00.896Z,7.14
2018-11-20T13:15:47.110Z,6.85
2018-11-20T13:18:46.210Z,6.85
2018-11-20T13:21:51.414Z,6.82
2018-11-20T13:24:29.561Z,6.82
2018-11-20T13:27:09.863Z,6.78
2018-11-20T13:30:00.221Z,6.94
2018-11-20T13:32:47.946Z,6.99
2018-11-20T13:35:31.306Z,7.03
2018-11-20T13:38:16.674Z,7.03
2018-11-20T13:41:44.771Z,7.04
2018-11-20T13:44:39.598Z,7.09
2018-11-20T13:47:19.562Z,7.08
2018-11-20T13:50:09.793Z,7.02
2018-11-20T13:52:59.658Z,6.99
2018-11-20T13:55:46.934Z,6.99
2018-11-20T13:58:32.789Z,7.20
2018-11-20T14:01:09.781Z,7.20
2018-11-20T14:03:53.653Z,7.31
2018-11-20T14:06:49.557Z,7.31
2018-11-20T14:09:48.934Z,7.28
2018-11-20T14:12:34.926Z,7.35
2018-11-20T14:15:37.022Z,7.35
2018-11-20T14:18:23.379Z,7.29
2018-11-20T14:21:08.991Z,7.24
2018-11-20T14:24:03.164Z,7.31
2018-11-20T14:26:48.806Z,7.30
2018-11-20T14:29:37.022Z,7.30
2018-11-20T14:32:42.504Z,7.31
2018-11-20T14:35:35.411Z,7.14
2018-11-20T14:38:31.749Z,7.16
2018-11-20T14:41:17.508Z,7.12
2018-11-20T14:44:07.504Z,7.19
2018-11-20T14:46:53.211Z,7.19
2018-11-20T14:49:49.423Z,7.19
2018-11-20T14:52:45.556Z,7.19
2018-11-20T14:55:27.456Z,7.21
2018-11-20T14:58:32.926Z,7.21
2018-11-20T15:01:23.057Z,7.15
2018-11-20T15:04:22.247Z,7.15
2018-11-20T15:07:17.361Z,7.03
2018-11-20T15:10:04.546Z,6.93
2018-11-20T15:13:00.610Z,6.93
2018-11-20T15:15:45.169Z,6.92
2018-11-20T15:18:35.156Z,6.85
2018-11-20T15:21:22.466Z,6.72
2018-11-20T15:24:08.088Z,6.74
2018-11-20T15:27:13.253Z,6.71
2018-11-20T15:30:01.176Z,6.71
2018-11-20T15:32:48.469Z,6.65
2018-11-20T15:35:35.181Z,6.65
2018-11-20T15:38:19.758Z,6.48
2018-11-20T15:41:15.908Z,6.48
2018-11-20T15:43:51.828Z,6.46
2018-11-20T15:46:39.247Z,6.46
2018-11-20T15:49:25.104Z,6.42
2018-11-20T15:52:10.726Z,6.42
2018-11-20T15:54:56.304Z,6.48
2018-11-20T15:57:43.981Z,6.48
2018-11-20T16:00:29.533Z,6.47
2018-11-20T16:03:15.620Z,6.43
2018-11-20T16:06:04.256Z,6.41
2018-11-20T16:08:49.949Z,6.36
2018-11-20T16:11:37.579Z,6.36
2018-11-20T16:14:40.007Z,6.43
2018-11-20T16:17:27.192Z,6.37
2018-11-20T16:20:13.084Z,6.29
2018-11-20T16:22:58.571Z,6.29
2018-11-20T16:25:52.670Z,6.27
2018-11-20T16:28:38.026Z,6.28
2018-11-20T16:31:25.531Z,6.28
2018-11-20T16:34:15.844Z,6.10
2018-11-20T16:37:03.199Z,6.10
2018-11-20T16:39:49.454Z,6.11
2018-11-20T16:42:35.560Z,6.11
2018-11-20T16:45:21.359Z,6.07
2018-11-20T16:48:04.252Z,5.97
2018-11-20T16:50:54.457Z,5.86
2018-11-20T16:53:44.193Z,5.79
2018-11-20T16:56:40.781Z,5.79
2018-11-20T16:59:26.653Z,5.73
2018-11-20T17:02:16.764Z,5.65
2018-11-20T17:05:09.976Z,5.65
2018-11-20T17:07:56.283Z,5.57
2018-11-20T17:10:37.486Z,5.52
2018-11-20T17:13:25.731Z,5.52
2018-11-20T17:16:12.018Z,5.50
2018-11-20T17:19:00.343Z,5.58
2018-11-20T17:21:46.282Z,5.64
2018-11-20T17:24:33.924Z,5.58
2018-11-20T17:27:33.392Z,5.57
2018-11-20T17:30:35.692Z,5.51
2018-11-20T17:33:22.974Z,5.58
2018-11-20T17:36:09.247Z,5.58
2018-11-20T17:38:54.944Z,5.67
2018-11-20T17:41:39.128Z,5.70
2018-11-20T17:44:18.140Z,5.79
2018-11-20T17:47:08.054Z,5.76
2018-11-20T17:50:07.336Z,5.70
2018-11-20T17:52:56.800Z,5.70
2018-11-20T17:55:42.778Z,5.68
2018-11-20T17:58:36.105Z,5.68
2018-11-20T18:01:28.346Z,5.66
2018-11-20T18:04:15.090Z,5.76
2018-11-20T18:07:00.691Z,5.78
2018-11-20T18:09:46.230Z,5.84
2018-11-20T18:12:39.635Z,5.86
2018-11-20T18:15:36.221Z,5.83
2018-11-20T18:18:25.272Z,5.77
2018-11-20T18:21:24.084Z,5.76
2018-11-20T18:24:09.871Z,5.83
2018-11-20T18:26:57.054Z,5.85
2018-11-20T18:29:46.730Z,5.84
2018-11-20T18:32:33.930Z,5.84
2018-11-20T18:35:23.984Z,5.94
2018-11-20T18:38:23.143Z,5.96
2018-11-20T18:41:05.290Z,6.00
2018-11-20T18:43:54.996Z,5.97
2018-11-20T18:46:41.106Z,5.97
2018-11-20T18:49:54.020Z,5.82
2018-11-20T18:52:43.315Z,5.82
2018-11-20T18:55:29.464Z,5.89
2018-11-20T18:58:15.291Z,5.96
2018-11-20T19:01:07.358Z,5.86
2018-11-20T19:03:57.286Z,5.86
2018-11-20T19:06:59.150Z,5.91
2018-11-20T19:09:48.247Z,5.89
2018-11-20T19:12:36.887Z,5.85
2018-11-20T19:15:26.272Z,5.85
2018-11-20T19:18:19.464Z,5.88
2018-11-20T19:21:01.990Z,5.88
2018-11-20T19:24:04.467Z,5.83
2018-11-20T19:26:49.902Z,5.90
2018-11-20T19:29:43.198Z,5.86
2018-11-20T19:32:30.643Z,5.85
2018-11-20T19:35:35.906Z,5.82
2018-11-20T19:38:41.313Z,5.82
2018-11-20T19:41:42.754Z,5.79
2018-11-20T19:44:32.426Z,5.78
2018-11-20T19:47:22.999Z,5.88
2018-11-20T19:50:08.666Z,5.88
2018-11-20T19:52:52.413Z,5.90
2018-11-20T19:55:33.356Z,5.88
2018-11-20T19:58:29.873Z,5.87
2018-11-20T20:01:19.792Z,5.87
2018-11-20T20:04:07.151Z,5.83
2018-11-20T20:06:52.723Z,5.77
2018-11-20T20:09:38.489Z,5.79
2018-11-20T20:12:15.931Z,5.95
2018-11-20T20:15:01.561Z,5.95
2018-11-20T20:17:54.512Z,5.96
2018-11-20T20:20:53.529Z,5.96
2018-11-20T20:23:52.458Z,5.86
2018-11-20T20:26:42.401Z,5.86
2018-11-20T20:29:28.502Z,5.79
2018-11-20T20:32:24.783Z,5.81
2018-11-20T20:35:10.218Z,5.81
2018-11-20T20:37:56.087Z,5.92
2018-11-20T20:40:39.719Z,5.93
2018-11-20T20:43:41.957Z,5.95
2018-11-20T20:46:37.963Z,6.00
2018-11-20T20:49:27.424Z,5.88
2018-11-20T20:52:17.789Z,5.86
2018-11-20T20:55:00.980Z,5.99
2018-11-20T20:57:46.767Z,5.92
2018-11-20T21:00:32.403Z,5.92
2018-11-20T21:03:31.708Z,5.94
2018-11-20T21:06:17.576Z,5.88
2018-11-20T21:09:20.059Z,5.93
2018-11-20T21:12:15.876Z,5.91
2018-11-20T21:15:20.887Z,5.89
2018-11-20T21:18:02.313Z,5.87
2018-11-20T21:20:47.893Z,5.87
2018-11-20T21:23:47.097Z,5.88
2018-11-20T21:26:43.281Z,5.66
2018-11-20T21:29:31.660Z,5.66
2018-11-20T21:32:17.319Z,5.62
2018-11-20T21:35:04.809Z,5.62
2018-11-20T21:37:50.490Z,5.66
2018-11-20T21:40:36.387Z,5.69
2018-11-20T21:43:26.021Z,5.55
2018-11-20T21:46:16.179Z,5.58
2018-11-20T21:49:01.860Z,5.49
2018-11-20T21:51:42.597Z,5.43
2018-11-20T21:54:28.859Z,5.32
2018-11-20T21:57:19.059Z,5.27
2018-11-20T22:00:11.518Z,5.36
2018-11-20T22:03:02.031Z,5.30
2018-11-20T22:05:57.899Z,5.33
2018-11-20T22:08:47.966Z,5.33
2018-11-20T22:11:33.511Z,5.33
2018-11-20T22:14:19.378Z,5.28
2018-11-20T22:17:07.824Z,5.23
2018-11-20T22:19:53.432Z,5.14
2018-11-20T22:22:58.566Z,5.01
2018-11-20T22:25:44.465Z,4.93
2018-11-20T22:28:33.796Z,4.83
2018-11-20T22:31:24.312Z,4.82
2018-11-20T22:34:26.603Z,4.92
2018-11-20T22:37:12.697Z,4.81
2018-11-20T22:40:07.311Z,4.89
2018-11-20T22:42:52.843Z,4.78
2018-11-20T22:45:38.241Z,4.76
2018-11-20T22:48:24.011Z,4.58
2018-11-20T22:51:11.454Z,4.43
2018-11-20T22:53:48.020Z,4.45
2018-11-20T22:56:31.771Z,4.57
2018-11-20T22:59:30.955Z,4.63
2018-11-20T23:02:18.270Z,4.73
2018-11-20T23:05:03.862Z,4.79
2018-11-20T23:07:44.438Z,4.89
2018-11-20T23:10:13.929Z,4.88
2018-11-20T23:12:43.152Z,4.81
2018-11-20T23:15:12.840Z,4.80
2018-11-20T23:17:40.922Z,4.89
2018-11-20T23:20:09.915Z,4.94
2018-11-20T23:22:38.296Z,4.96
2018-11-20T23:25:07.693Z,5.04
2018-11-20T23:27:36.184Z,5.08
2018-11-20T23:30:05.467Z,4.94
2018-11-20T23:32:33.884Z,4.82
2018-11-20T23:35:01.950Z,4.93
2018-11-20T23:37:30.073Z,4.89
2018-11-20T23:39:58.147Z,5.02
2018-11-20T23:42:26.248Z,5.01
2018-11-20T23:44:54.273Z,4.94
2018-11-20T23:47:22.363Z,4.98
2018-11-20T23:49:50.569Z,3.87
2018-11-20T23:52:27.169Z,4.95
2018-11-20T23:54:56.218Z,4.99
2018-11-20T23:57:24.897Z,5.01
2018-11-20T23:59:54.376Z,5.05
